Terminal Aerodrome Forecast
Issued by NWS Sterling, VA

Current Version | Previous Version | Graphics & Text | Print | Product List | Glossary On
Versions: 1 2 3 4 5 6 7 8 9 10 11 12 13 14 15 16 17 18 19 20 21 22 23 24
069
FTUS41 KLWX 172101 AAA
TAFDCA
TAF AMD
KDCA 172101Z 1721/1818 31009KT P6SM FEW100 BKN250
     FM172300 VRB03KT P6SM FEW150 BKN250
     FM180900 19007KT P6SM SCT150 BKN250
     FM181300 19011G18KT P6SM SCT150 BKN250=

USA.gov is the U.S. government's official web portal to all federal, state and local government web resources and services.